Time;durP1;ratioP1;P1;durP2;ratioP2;P2;SDS_P1;SDS_P2;PMS_P1;PMS_P2;Temp;Humidity;BMP_temperature;BMP_pressure;BME280_temperature;BME280_humidity;BME280_pressure;Samples;Min_cycle;Max_cycle;Signal;HPM_P1;HPM_P2
2023/03/06 00:01:59;;;;;;;43.40;20.90;;;;;;;;;;4997395;28;20345;-71
2023/03/06 00:04:24;;;;;;;41.93;19.23;;;;;;;;;;4999810;28;20279;-71
2023/03/06 00:06:49;;;;;;;40.60;20.60;;;;;;;;;;5003373;28;20061;-70
2023/03/06 00:09:15;;;;;;;42.35;21.98;;;;;;;;;;4985232;28;20041;-71
2023/03/06 00:11:40;;;;;;;47.60;22.63;;;;;;;;;;5004321;28;20229;-72
2023/03/06 00:14:05;;;;;;;52.53;24.20;;;;;;;;;;5002927;28;20069;-70
2023/03/06 00:16:30;;;;;;;51.87;24.00;;;;;;;;;;5000415;28;20049;-70
2023/03/06 00:18:55;;;;;;;57.33;25.63;;;;;;;;;;5002777;28;20038;-70
2023/03/06 00:21:21;;;;;;;51.53;24.03;;;;;;;;;;5000493;28;20121;-71
2023/03/06 00:23:46;;;;;;;43.63;21.60;;;;;;;;;;5002886;28;20105;-71
2023/03/06 00:26:11;;;;;;;42.87;21.57;;;;;;;;;;5002722;28;20378;-70
2023/03/06 00:28:36;;;;;;;47.20;23.25;;;;;;;;;;5001903;28;20287;-71
2023/03/06 00:31:02;;;;;;;46.00;21.88;;;;;;;;;;5002632;28;20092;-70
2023/03/06 00:33:27;;;;;;;45.25;22.13;;;;;;;;;;5001962;28;20021;-71
2023/03/06 00:35:52;;;;;;;44.17;20.70;;;;;;;;;;5000612;28;20679;-70
2023/03/06 00:38:18;;;;;;;40.28;20.67;;;;;;;;;;4997289;28;20022;-70
2023/03/06 00:40:43;;;;;;;40.45;20.38;;;;;;;;;;5002144;28;20053;-70
2023/03/06 00:43:08;;;;;;;44.03;20.73;;;;;;;;;;5000171;28;20449;-71
2023/03/06 00:45:34;;;;;;;40.90;20.58;;;;;;;;;;5000017;28;20325;-70
2023/03/06 00:47:59;;;;;;;40.20;20.45;;;;;;;;;;5000258;28;20045;-70
2023/03/06 00:50:24;;;;;;;41.33;20.05;;;;;;;;;;4999651;28;20691;-70
2023/03/06 00:52:49;;;;;;;42.27;20.53;;;;;;;;;;4999230;28;20396;-71
2023/03/06 00:55:15;;;;;;;42.03;19.73;;;;;;;;;;4995611;28;20287;-71
2023/03/06 00:57:40;;;;;;;45.05;20.42;;;;;;;;;;4981255;28;20499;-70
2023/03/06 01:00:06;;;;;;;43.90;20.63;;;;;;;;;;4997529;28;20025;-70
2023/03/06 01:02:31;;;;;;;41.30;20.08;;;;;;;;;;4992317;28;20026;-72
2023/03/06 01:04:56;;;;;;;43.00;20.30;;;;;;;;;;5004868;28;20450;-70
2023/03/06 01:07:22;;;;;;;42.80;20.65;;;;;;;;;;4995246;28;20096;-70
2023/03/06 01:09:47;;;;;;;39.17;20.00;;;;;;;;;;4997563;28;20113;-71
2023/03/06 01:12:12;;;;;;;40.00;21.33;;;;;;;;;;4984168;28;20065;-68
2023/03/06 01:14:38;;;;;;;39.05;20.27;;;;;;;;;;4988587;28;20026;-70
2023/03/06 01:17:03;;;;;;;45.70;20.80;;;;;;;;;;4996457;28;20124;-70
2023/03/06 01:19:28;;;;;;;39.13;20.10;;;;;;;;;;4998362;28;20391;-70
2023/03/06 01:21:54;;;;;;;43.05;20.30;;;;;;;;;;4982320;28;20073;-70
2023/03/06 01:24:19;;;;;;;45.53;21.07;;;;;;;;;;4996647;28;20041;-70
2023/03/06 01:26:44;;;;;;;38.10;19.60;;;;;;;;;;4979874;28;20420;-69
2023/03/06 01:29:09;;;;;;;38.93;20.70;;;;;;;;;;4997083;28;20287;-70
2023/03/06 01:31:35;;;;;;;36.93;19.00;;;;;;;;;;4998207;28;20323;-69
2023/03/06 01:34:00;;;;;;;40.42;20.15;;;;;;;;;;4999854;28;20490;-70
2023/03/06 01:36:25;;;;;;;44.42;19.70;;;;;;;;;;4987316;28;20042;-70
2023/03/06 01:38:51;;;;;;;43.30;19.27;;;;;;;;;;4998187;28;20037;-70
2023/03/06 01:41:16;;;;;;;39.50;19.47;;;;;;;;;;4997783;28;20058;-69
2023/03/06 01:43:43;;;;;;;40.95;20.55;;;;;;;;;;4995149;28;20370;-70
2023/03/06 01:46:24;;;;;;;40.83;20.35;;;;;;;;;;4977510;28;20356;-70
2023/03/06 01:48:52;;;;;;;41.70;20.42;;;;;;;;;;5000786;28;20085;-70
2023/03/06 01:51:18;;;;;;;41.35;20.60;;;;;;;;;;4998596;28;20040;-70
2023/03/06 01:53:44;;;;;;;40.90;20.23;;;;;;;;;;4981381;28;20329;-70
2023/03/06 01:56:10;;;;;;;42.83;19.60;;;;;;;;;;4997605;28;20124;-70
2023/03/06 01:58:35;;;;;;;42.38;20.10;;;;;;;;;;4998177;28;20109;-70
2023/03/06 02:01:00;;;;;;;43.15;20.10;;;;;;;;;;4998366;28;20022;-71
2023/03/06 02:03:27;;;;;;;41.50;20.30;;;;;;;;;;4997519;28;20399;-70
2023/03/06 02:05:52;;;;;;;40.45;19.92;;;;;;;;;;4986362;28;20330;-71
2023/03/06 02:08:20;;;;;;;39.75;18.88;;;;;;;;;;4979278;28;20069;-72
2023/03/06 02:10:56;;;;;;;39.05;18.73;;;;;;;;;;4981765;28;20183;-71
2023/03/06 02:13:21;;;;;;;40.22;19.40;;;;;;;;;;4996636;28;20034;-72
2023/03/06 02:15:47;;;;;;;48.67;21.00;;;;;;;;;;4995566;28;20038;-70
2023/03/06 02:18:12;;;;;;;44.17;20.80;;;;;;;;;;4996559;28;20026;-70
2023/03/06 02:20:47;;;;;;;45.03;22.17;;;;;;;;;;4979692;28;20022;-69
2023/03/06 02:23:23;;;;;;;44.00;21.40;;;;;;;;;;4982294;28;20366;-70
2023/03/06 02:25:50;;;;;;;43.85;20.83;;;;;;;;;;4996584;28;20539;-70
2023/03/06 02:28:17;;;;;;;46.05;21.38;;;;;;;;;;4993785;28;20467;-70
2023/03/06 02:30:43;;;;;;;42.83;22.45;;;;;;;;;;4985181;28;20022;-70
2023/03/06 02:33:19;;;;;;;45.03;20.80;;;;;;;;;;5000230;28;20087;-70
2023/03/06 02:35:48;;;;;;;40.50;21.17;;;;;;;;;;4998104;28;20068;-70
2023/03/06 02:38:14;;;;;;;44.70;21.38;;;;;;;;;;4984575;28;20439;-70
2023/03/06 02:40:45;;;;;;;43.65;20.90;;;;;;;;;;4996603;28;20479;-70
2023/03/06 02:43:13;;;;;;;43.30;21.25;;;;;;;;;;4997272;28;20451;-70
2023/03/06 02:45:43;;;;;;;48.90;23.23;;;;;;;;;;4997258;28;20041;-70
2023/03/06 02:48:08;;;;;;;57.88;25.38;;;;;;;;;;4997183;28;20109;-70
2023/03/06 02:50:33;;;;;;;55.42;23.73;;;;;;;;;;5001775;28;20144;-69
2023/03/06 02:52:59;;;;;;;47.67;22.85;;;;;;;;;;4998647;28;20451;-70
2023/03/06 02:55:24;;;;;;;49.70;23.63;;;;;;;;;;4995746;28;20105;-70
2023/03/06 02:57:50;;;;;;;50.60;24.65;;;;;;;;;;4987573;28;20290;-69
2023/03/06 03:00:15;;;;;;;59.67;25.40;;;;;;;;;;4999297;28;20026;-71
2023/03/06 03:02:41;;;;;;;51.42;24.73;;;;;;;;;;4999796;28;20033;-71
2023/03/06 03:05:06;;;;;;;48.40;24.27;;;;;;;;;;4980269;28;20117;-71
2023/03/06 03:07:31;;;;;;;49.33;24.05;;;;;;;;;;4979268;28;20047;-70
2023/03/06 03:09:57;;;;;;;48.57;23.73;;;;;;;;;;4998472;28;20026;-70
2023/03/06 03:12:22;;;;;;;48.35;21.95;;;;;;;;;;4999374;28;20033;-71
2023/03/06 03:14:48;;;;;;;48.13;22.77;;;;;;;;;;4996548;28;20774;-70
2023/03/06 03:17:13;;;;;;;53.55;24.30;;;;;;;;;;4996334;28;20286;-70
2023/03/06 03:19:38;;;;;;;50.08;22.83;;;;;;;;;;5000158;28;20030;-71
2023/03/06 03:22:04;;;;;;;48.00;21.97;;;;;;;;;;4981853;28;20038;-70
2023/03/06 03:24:29;;;;;;;51.75;22.27;;;;;;;;;;4999200;28;20304;-70
2023/03/06 03:26:54;;;;;;;50.73;21.27;;;;;;;;;;4982431;28;20030;-70
2023/03/06 03:29:20;;;;;;;44.95;20.90;;;;;;;;;;4992164;28;20069;-70
2023/03/06 03:31:45;;;;;;;44.13;20.00;;;;;;;;;;4996422;28;20038;-70
2023/03/06 03:34:10;;;;;;;36.25;18.77;;;;;;;;;;4998949;28;20029;-70
2023/03/06 03:36:36;;;;;;;39.30;18.42;;;;;;;;;;4999367;28;20036;-70
2023/03/06 03:39:02;;;;;;;41.42;19.42;;;;;;;;;;4999105;28;20045;-69
2023/03/06 03:41:27;;;;;;;37.97;18.73;;;;;;;;;;5001251;28;20038;-69
2023/03/06 03:43:52;;;;;;;42.05;19.13;;;;;;;;;;5001736;28;20121;-69
2023/03/06 03:46:18;;;;;;;38.60;18.63;;;;;;;;;;4985742;28;20055;-70
2023/03/06 03:48:43;;;;;;;36.55;18.45;;;;;;;;;;4996162;28;20290;-69
2023/03/06 03:51:10;;;;;;;39.50;18.53;;;;;;;;;;4981864;28;20045;-70
2023/03/06 03:53:35;;;;;;;41.95;18.63;;;;;;;;;;4982714;28;20279;-71
2023/03/06 03:56:00;;;;;;;37.20;18.50;;;;;;;;;;5000777;28;20041;-70
2023/03/06 03:58:25;;;;;;;39.47;18.57;;;;;;;;;;5000414;28;20272;-71
2023/03/06 04:00:50;;;;;;;41.37;18.50;;;;;;;;;;4999807;28;20477;-70
2023/03/06 04:03:16;;;;;;;39.13;18.47;;;;;;;;;;4982887;28;20340;-71
2023/03/06 04:05:41;;;;;;;35.53;17.15;;;;;;;;;;5000299;28;20036;-70
2023/03/06 04:08:06;;;;;;;35.97;17.77;;;;;;;;;;4999020;28;20054;-71
2023/03/06 04:10:33;;;;;;;36.07;18.00;;;;;;;;;;4981434;28;20034;-70
2023/03/06 04:12:58;;;;;;;36.22;18.23;;;;;;;;;;5003361;28;20044;-70
2023/03/06 04:15:23;;;;;;;43.38;19.65;;;;;;;;;;4979762;28;20026;-69
2023/03/06 04:17:49;;;;;;;36.93;18.27;;;;;;;;;;4980183;28;20483;-71
2023/03/06 04:20:14;;;;;;;37.78;18.75;;;;;;;;;;4981346;28;20358;-70
2023/03/06 04:22:39;;;;;;;38.63;19.13;;;;;;;;;;4999017;28;20061;-70
2023/03/06 04:25:04;;;;;;;40.00;19.47;;;;;;;;;;4982828;28;20038;-70
2023/03/06 04:27:30;;;;;;;35.22;17.75;;;;;;;;;;5002700;28;20037;-71
2023/03/06 04:29:55;;;;;;;40.40;18.83;;;;;;;;;;5001120;28;20526;-71
2023/03/06 04:32:21;;;;;;;37.65;19.25;;;;;;;;;;4983432;28;20276;-71
2023/03/06 04:34:46;;;;;;;39.40;19.45;;;;;;;;;;5001856;28;20077;-71
2023/03/06 04:37:17;;;;;;;41.50;20.27;;;;;;;;;;4982202;28;20037;-71
2023/03/06 04:39:42;;;;;;;37.97;19.90;;;;;;;;;;5001404;28;20081;-70
2023/03/06 04:42:07;;;;;;;42.20;20.37;;;;;;;;;;4983148;28;20484;-71
2023/03/06 04:44:33;;;;;;;39.23;19.37;;;;;;;;;;5001573;28;20314;-70
2023/03/06 04:46:58;;;;;;;39.97;20.52;;;;;;;;;;5001743;28;20287;-70
2023/03/06 04:49:23;;;;;;;41.53;20.53;;;;;;;;;;4998550;28;20473;-70
2023/03/06 04:51:48;;;;;;;40.07;19.37;;;;;;;;;;4990984;28;20568;-70
2023/03/06 04:54:14;;;;;;;40.70;19.60;;;;;;;;;;5000310;28;20034;-70
2023/03/06 04:56:39;;;;;;;38.47;19.47;;;;;;;;;;4999749;28;20022;-73
2023/03/06 04:59:04;;;;;;;38.35;18.92;;;;;;;;;;4983179;28;20025;-74
2023/03/06 05:01:29;;;;;;;36.45;18.80;;;;;;;;;;5000716;28;20392;-73
2023/03/06 05:03:55;;;;;;;37.57;18.53;;;;;;;;;;5001327;28;20044;-73
2023/03/06 05:06:20;;;;;;;39.63;18.50;;;;;;;;;;4992428;28;20270;-73
2023/03/06 05:08:46;;;;;;;35.33;18.00;;;;;;;;;;5005316;28;20283;-71
2023/03/06 05:11:11;;;;;;;36.45;17.90;;;;;;;;;;5000140;28;20378;-70
2023/03/06 05:13:36;;;;;;;35.57;17.53;;;;;;;;;;5000043;28;20084;-69
2023/03/06 05:16:02;;;;;;;31.50;17.00;;;;;;;;;;5000584;28;20036;-69
2023/03/06 05:18:28;;;;;;;32.83;16.60;;;;;;;;;;4997996;28;20283;-70
2023/03/06 05:20:58;;;;;;;33.55;16.38;;;;;;;;;;4988315;28;20022;-70
2023/03/06 05:23:23;;;;;;;33.63;16.40;;;;;;;;;;4980460;28;20023;-69
2023/03/06 05:25:48;;;;;;;34.08;16.17;;;;;;;;;;4997831;28;20026;-70
2023/03/06 05:28:14;;;;;;;32.27;15.47;;;;;;;;;;4981371;28;20050;-70
2023/03/06 05:30:39;;;;;;;30.95;15.75;;;;;;;;;;4999440;28;20342;-69
2023/03/06 05:33:04;;;;;;;31.87;15.77;;;;;;;;;;4997743;28;20042;-70
2023/03/06 05:35:29;;;;;;;48.30;24.63;;;;;;;;;;4997030;28;20034;-70
2023/03/06 05:37:55;;;;;;;40.15;18.20;;;;;;;;;;4999708;28;20958;-70
2023/03/06 05:40:20;;;;;;;32.40;15.57;;;;;;;;;;5001945;28;20030;-70
2023/03/06 05:42:45;;;;;;;31.70;15.50;;;;;;;;;;4979120;28;20034;-70
2023/03/06 05:45:10;;;;;;;32.60;16.37;;;;;;;;;;5000284;28;20041;-69
2023/03/06 05:47:36;;;;;;;34.23;15.97;;;;;;;;;;5001769;28;20468;-69
2023/03/06 05:50:02;;;;;;;33.73;16.33;;;;;;;;;;4998791;28;20323;-69
2023/03/06 05:52:27;;;;;;;35.13;16.70;;;;;;;;;;4990223;28;20041;-69
2023/03/06 05:54:53;;;;;;;34.47;16.63;;;;;;;;;;4997138;28;20041;-69
2023/03/06 05:57:19;;;;;;;34.97;16.80;;;;;;;;;;4998589;28;20378;-68
2023/03/06 05:59:44;;;;;;;34.30;16.02;;;;;;;;;;4999675;28;20026;-69
2023/03/06 06:02:10;;;;;;;36.08;16.90;;;;;;;;;;4999149;28;20484;-69
2023/03/06 06:04:35;;;;;;;36.53;16.57;;;;;;;;;;4998065;28;20038;-70
2023/03/06 06:07:00;;;;;;;34.10;17.27;;;;;;;;;;4999538;28;20330;-70
2023/03/06 06:09:26;;;;;;;37.75;16.10;;;;;;;;;;5000663;28;20780;-73
2023/03/06 06:11:59;;;;;;;33.03;16.98;;;;;;;;;;4981426;28;20046;-74
2023/03/06 06:14:24;;;;;;;35.75;16.60;;;;;;;;;;4977842;28;20041;-73
2023/03/06 06:16:50;;;;;;;34.90;16.00;;;;;;;;;;4998775;28;20605;-70
2023/03/06 06:19:19;;;;;;;37.85;16.83;;;;;;;;;;4982217;28;20366;-70
2023/03/06 06:21:48;;;;;;;37.47;16.67;;;;;;;;;;5000462;28;20023;-70
2023/03/06 06:24:14;;;;;;;32.45;15.60;;;;;;;;;;4999136;28;20048;-70
2023/03/06 06:26:39;;;;;;;35.30;15.20;;;;;;;;;;4995191;28;20534;-70
2023/03/06 06:29:05;;;;;;;35.15;14.80;;;;;;;;;;4997386;28;20049;-71
2023/03/06 06:31:30;;;;;;;30.53;14.93;;;;;;;;;;4982494;28;20021;-70
2023/03/06 06:33:55;;;;;;;29.38;14.88;;;;;;;;;;5000054;28;20290;-70
2023/03/06 06:36:21;;;;;;;29.63;15.00;;;;;;;;;;4987757;28;20554;-70
2023/03/06 06:38:46;;;;;;;31.10;15.38;;;;;;;;;;4998313;28;20279;-69
2023/03/06 06:41:11;;;;;;;32.55;14.63;;;;;;;;;;5001561;28;20034;-70
2023/03/06 06:43:37;;;;;;;29.23;14.83;;;;;;;;;;4997722;28;20022;-69
2023/03/06 06:46:02;;;;;;;27.13;13.57;;;;;;;;;;4991984;28;20646;-70
2023/03/06 06:48:27;;;;;;;24.80;13.27;;;;;;;;;;4996015;28;20121;-70
2023/03/06 06:50:56;;;;;;;25.90;13.63;;;;;;;;;;4998765;28;20034;-70
2023/03/06 06:53:21;;;;;;;27.77;14.15;;;;;;;;;;5000256;28;20294;-71
2023/03/06 06:55:46;;;;;;;31.48;13.45;;;;;;;;;;4996506;28;20022;-70
2023/03/06 06:58:12;;;;;;;26.20;11.83;;;;;;;;;;4983496;28;20048;-70
2023/03/06 07:00:37;;;;;;;24.50;11.68;;;;;;;;;;4985277;28;20488;-70
2023/03/06 07:03:03;;;;;;;23.97;12.73;;;;;;;3.80;nan;100035.31;4999392;28;20026;-70
2023/03/06 07:05:28;;;;;;;23.15;11.35;;;;;;;3.92;nan;100047.81;4997055;28;20024;-71
2023/03/06 07:07:53;;;;;;;24.63;12.10;;;;;;;3.95;nan;100044.84;4998389;28;20061;-71
2023/03/06 07:10:19;;;;;;;23.10;12.20;;;;;;;4.02;nan;100045.69;4996848;28;20221;-70
2023/03/06 07:12:44;;;;;;;24.88;12.88;;;;;;;4.05;nan;100033.09;5000716;28;20137;-71
2023/03/06 07:15:13;;;;;;;26.33;11.45;;;;;;;4.11;nan;100043.75;4999370;28;20030;-71
2023/03/06 07:17:38;;;;;;;25.08;11.52;;;;;;;4.12;nan;100042.75;4987679;28;20438;-70
2023/03/06 07:20:05;;;;;;;26.50;12.35;;;;;;;4.22;nan;100062.25;4980005;28;20026;-70
2023/03/06 07:22:31;;;;;;;25.17;12.93;;;;;;;4.26;nan;100057.47;4997623;28;20049;-70
2023/03/06 07:24:57;;;;;;;23.67;11.45;;;;;;;4.33;nan;100073.13;4982915;28;20058;-70
2023/03/06 07:27:24;;;;;;;24.23;11.73;;;;;;;4.20;nan;100034.78;4997856;28;20092;-70
2023/03/06 07:29:50;;;;;;;22.40;10.75;;;;;;;4.34;nan;100057.31;4978450;28;20110;-70
2023/03/06 07:32:15;;;;;;;25.38;11.68;;;;;;;4.45;nan;100064.59;4997554;28;20396;-70
2023/03/06 07:34:43;;;;;;;20.13;10.75;;;;;;;4.53;nan;100070.66;4994433;28;20522;-71
2023/03/06 07:37:09;;;;;;;21.65;10.95;;;;;;;4.57;nan;100066.66;4995244;28;20026;-70
2023/03/06 07:39:34;;;;;;;21.73;11.05;;;;;;;4.67;nan;100080.97;4995198;28;20099;-70
2023/03/06 07:41:59;;;;;;;22.17;10.32;;;;;;;4.69;nan;100067.69;4995802;28;20047;-70
2023/03/06 07:44:25;;;;;;;24.23;10.57;;;;;;;4.80;nan;100074.97;4998771;28;20030;-72
2023/03/06 07:46:51;;;;;;;19.42;10.27;;;;;;;4.86;nan;100069.00;4997533;28;20014;-72
2023/03/06 07:49:16;;;;;;;19.05;9.90;;;;;;;4.96;nan;100079.06;4997117;28;20029;-72
2023/03/06 07:51:42;;;;;;;22.83;10.15;;;;;;;4.97;nan;100061.59;4999243;28;20026;-71
2023/03/06 07:54:07;;;;;;;17.90;9.18;;;;;;;5.12;nan;100067.44;4998126;28;20037;-70
2023/03/06 07:56:35;;;;;;;20.27;9.55;;;;;;;5.18;nan;100069.28;5001155;28;20822;-70
2023/03/06 07:59:01;;;;;;;17.45;8.45;;;;;;;5.21;nan;100057.63;5000347;28;20030;-70
2023/03/06 08:01:26;;;;;;;17.65;8.75;;;;;;;5.24;nan;100049.41;5000016;28;20014;-70
2023/03/06 08:03:52;;;;;;;19.17;8.48;;;;;;;5.46;nan;100063.09;4994664;28;20037;-74
2023/03/06 08:06:24;;;;;;;17.88;8.70;;;;;;;5.54;nan;100071.53;5001131;28;20052;-74
2023/03/06 08:08:51;;;;;;;17.45;9.38;;;;;;;5.53;nan;100054.28;4959919;28;20505;-70
2023/03/06 08:11:19;;;;;;;16.95;8.63;;;;;;;5.60;nan;100051.66;4962260;28;20058;-70
2023/03/06 08:13:47;;;;;;;16.25;8.30;;;;;;;5.70;nan;100054.69;4965385;28;20072;-70
2023/03/06 08:16:12;;;;;;;16.80;8.50;;;;;;;5.85;nan;100069.34;4966710;28;20081;-70
2023/03/06 08:18:39;;;;;;;18.83;9.40;;;;;;;5.85;nan;100061.50;4965956;28;20034;-70
2023/03/06 08:21:16;;;;;;;17.55;9.05;;;;;;;5.88;nan;100061.91;4976610;28;20023;-70
2023/03/06 08:23:42;;;;;;;17.33;8.65;;;;;;;;;;4974106;28;20033;-70
2023/03/06 08:26:09;;;;;;;16.77;8.82;;;;;;;;;;4960438;28;20027;-70
2023/03/06 08:28:34;;;;;;;17.48;8.45;;;;;;;;;;4958657;28;20157;-70
2023/03/06 08:31:07;;;;;;;16.25;9.07;;;;;;;;;;4956692;28;20046;-69
2023/03/06 08:33:32;;;;;;;16.13;8.60;;;;;;;;;;4961696;28;20037;-74
2023/03/06 08:35:57;;;;;;;18.33;9.27;;;;;;;;;;4961368;28;20031;-69
2023/03/06 08:38:22;;;;;;;17.17;8.77;;;;;;;;;;4958383;28;20360;-69
2023/03/06 08:40:48;;;;;;;15.27;8.07;;;;;;;;;;4959759;28;20636;-70
2023/03/06 08:43:13;;;;;;;15.87;8.53;;;;;;;;;;4958045;28;20272;-70
2023/03/06 08:45:39;;;;;;;15.63;7.78;;;;;;;;;;4959359;28;20292;-70
2023/03/06 08:48:04;;;;;;;19.30;10.07;;;;;;;;;;4960984;28;20469;-70
2023/03/06 08:50:29;;;;;;;16.10;8.60;;;;;;;;;;4958245;28;20036;-69
2023/03/06 08:52:54;;;;;;;16.58;8.75;;;;;;;;;;4960565;28;20313;-70
2023/03/06 08:55:20;;;;;;;17.00;7.93;;;;;;;;;;4961751;28;20644;-70
2023/03/06 08:57:45;;;;;;;14.98;7.95;;;;;;;;;;4956921;28;20273;-70
2023/03/06 09:00:11;;;;;;;13.10;8.03;;;;;;;;;;4959046;28;20054;-70
2023/03/06 09:02:37;;;;;;;13.77;8.10;;;;;;;;;;4976874;28;20288;-70
2023/03/06 09:05:06;;;;;;;16.85;8.40;;;;;;;;;;4960852;28;20109;-70
2023/03/06 09:07:31;;;;;;;15.43;8.05;;;;;;;;;;4978069;28;20128;-70
2023/03/06 09:09:57;;;;;;;15.32;8.63;;;;;;;;;;4999374;28;20121;-71
2023/03/06 09:12:22;;;;;;;17.33;9.15;;;;;;;;;;5001228;28;20019;-70
2023/03/06 09:14:47;;;;;;;17.42;8.75;;;;;;;;;;4983683;28;20038;-70
2023/03/06 09:17:13;;;;;;;19.20;9.50;;;;;;;;;;4996832;28;20026;-71
2023/03/06 09:19:38;;;;;;;19.80;9.00;;;;;;;;;;5000590;28;20280;-70
2023/03/06 09:22:03;;;;;;;22.27;9.70;;;;;;;;;;4999640;28;20034;-70
2023/03/06 09:24:28;;;;;;;17.47;9.23;;;;;;;;;;4998702;28;20970;-70
2023/03/06 09:26:54;;;;;;;21.40;10.17;;;;;;;;;;5001056;28;20306;-68
2023/03/06 09:29:19;;;;;;;16.70;9.27;;;;;;;;;;4998375;28;20282;-71
2023/03/06 09:31:44;;;;;;;19.23;9.27;;;;;;;;;;5001017;28;20362;-71
2023/03/06 09:34:10;;;;;;;18.20;10.02;;;;;;;;;;4998765;28;20037;-70
2023/03/06 09:36:35;;;;;;;15.03;9.37;;;;;;;;;;4998607;28;20554;-70
2023/03/06 09:39:00;;;;;;;17.80;9.20;;;;;;;;;;5001170;28;20278;-70
2023/03/06 09:41:33;;;;;;;17.93;9.37;;;;;;;;;;4997506;28;20367;-70
2023/03/06 09:44:03;;;;;;;18.15;9.90;;;;;;;;;;4999780;28;20315;-70
2023/03/06 09:46:47;;;;;;;21.63;10.40;;;;;;;;;;4990475;28;20121;-70
2023/03/06 09:49:34;;;;;;;18.48;9.38;;;;;;;;;;4980912;28;20642;-70
2023/03/06 09:52:18;;;;;;;19.08;9.73;;;;;;;;;;4998570;28;20036;-70
2023/03/06 09:54:44;;;;;;;17.00;9.00;;;;;;;;;;4999705;28;20072;-70
2023/03/06 09:57:17;;;;;;;14.73;8.68;;;;;;;;;;4999696;28;20118;-70
2023/03/06 09:59:44;;;;;;;17.85;8.85;;;;;;;;;;4995393;28;20017;-70
2023/03/06 10:02:14;;;;;;;17.95;7.70;;;;;;;;;;4999417;28;20033;-70
2023/03/06 10:04:41;;;;;;;15.75;8.70;;;;;;;;;;4996938;28;20022;-70
2023/03/06 10:07:10;;;;;;;13.98;7.72;;;;;;;;;;4996709;28;20105;-70
2023/03/06 10:09:36;;;;;;;14.95;7.90;;;;;;;;;;4995620;28;20038;-70
2023/03/06 10:12:05;;;;;;;15.32;8.45;;;;;;;;;;4977716;28;20041;-68
2023/03/06 10:14:35;;;;;;;17.25;8.60;;;;;;;;;;4996989;28;20507;-70
2023/03/06 10:17:01;;;;;;;16.38;8.00;;;;;;;;;;5001711;28;20038;-70
2023/03/06 10:19:31;;;;;;;15.98;7.10;;;;;;;;;;5001464;28;20036;-70
2023/03/06 10:22:12;;;;;;;14.25;7.63;;;;;;;;;;4999343;28;20357;-70
2023/03/06 10:24:52;;;;;;;13.35;6.95;;;;;;;;;;4976420;28;20055;-69
2023/03/06 10:27:22;;;;;;;;;;;;;;;9.34;nan;100074.28;4981923;28;20025;-69
2023/03/06 10:30:17;;;;;;;15.35;7.32;;;;;;;8.86;nan;99978.78;5007566;28;20674;-70
2023/03/06 10:32:54;;;;;;;13.18;6.60;;;;;;;9.09;nan;100006.13;4997629;28;20022;-70
2023/03/06 10:35:38;;;;;;;14.73;7.07;;;;;;;9.20;nan;100007.22;4999774;28;20034;-70
2023/03/06 10:38:25;;;;;;;14.52;7.78;;;;;;;9.27;nan;99997.41;4997113;28;20755;-70
2023/03/06 10:41:09;;;;;;;12.88;6.72;;;;;;;9.35;nan;99999.69;4993676;28;20046;-70
2023/03/06 10:43:36;;;;;;;13.65;7.07;;;;;;;9.28;nan;99977.97;4997456;28;20026;-70
2023/03/06 10:46:01;;;;;;;12.48;7.00;;;;;;;;;;4997915;28;20052;-69
2023/03/06 10:48:27;;;;;;;14.17;6.27;;;;;;;;;;4986141;28;20552;-68
2023/03/06 10:51:07;;;;;;;13.95;7.55;;;;;;;;;;4996634;28;20361;-69
2023/03/06 10:53:33;;;;;;;12.00;6.97;;;;;;;;;;4997084;28;20392;-69
2023/03/06 10:55:59;;;;;;;12.80;6.97;;;;;;;;;;5001118;28;20026;-69
2023/03/06 10:58:25;;;;;;;15.40;7.93;;;;;;;;;;4977929;28;20354;-69
2023/03/06 11:01:17;;;;;;;13.73;7.22;;;;;;;;;;5001321;28;20069;-69
2023/03/06 11:03:42;;;;;;;14.50;7.03;;;;;;;;;;4997704;28;20030;-71
2023/03/06 11:06:07;;;;;;;15.43;7.70;;;;;;;;;;4979727;28;20177;-70
2023/03/06 11:08:34;;;;;;;15.65;6.85;;;;;;;9.80;nan;99925.50;4995157;28;20077;-69
2023/03/06 11:11:10;;;;;;;13.45;6.95;;;;;;;9.59;nan;99882.22;4994642;28;20030;-70
2023/03/06 11:13:38;;;;;;;13.98;6.63;;;;;;;9.82;nan;99915.56;4998074;28;20037;-69
2023/03/06 11:16:12;;;;;;;13.98;6.97;;;;;;;9.95;nan;99914.50;4995417;28;20050;-69
2023/03/06 11:18:39;;;;;;;14.02;7.50;;;;;;;10.01;nan;99909.13;4991671;28;20036;-69
2023/03/06 11:21:24;;;;;;;12.88;7.03;;;;;;;10.07;nan;99907.38;4997487;28;20362;-69
2023/03/06 11:23:50;;;;;;;12.07;6.80;;;;;;;10.14;nan;99905.41;4991987;28;20048;-69
2023/03/06 11:26:16;;;;;;;16.00;7.00;;;;;;;10.23;nan;99905.84;4991936;28;20081;-69
2023/03/06 11:28:44;;;;;;;11.32;6.57;;;;;;;;;;4990975;28;20026;-69
2023/03/06 11:31:17;;;;;;;15.20;7.43;;;;;;;;;;4995501;28;20092;-68
2023/03/06 11:33:51;;;;;;;15.23;7.72;;;;;;;;;;4995542;28;20124;-72
2023/03/06 11:36:16;;;;;;;13.48;7.40;;;;;;;;;;4991013;28;20488;-73
2023/03/06 11:38:48;;;;;;;14.13;7.37;;;;;;;;;;4995129;28;20022;-72
2023/03/06 11:41:37;;;;;;;13.95;7.07;;;;;;;;;;4995042;28;20030;-73
2023/03/06 11:44:10;;;;;;;11.10;6.63;;;;;;;;;;4971736;28;20043;-69
2023/03/06 11:46:48;;;;;;;13.70;7.35;;;;;;;;;;4972652;28;20249;-69
2023/03/06 11:49:25;;;;;;;15.37;7.30;;;;;;;10.62;nan;99866.56;4973325;28;20571;-69
2023/03/06 11:51:54;;;;;;;17.08;7.47;;;;;;;10.66;nan;99859.78;4978300;28;20485;-69
2023/03/06 11:54:21;;;;;;;12.50;7.25;;;;;;;10.61;nan;99849.97;4979703;28;20039;-70
2023/03/06 11:56:57;;;;;;;12.75;7.00;;;;;;;10.78;nan;99867.63;4977695;28;20034;-70
2023/03/06 11:59:39;;;;;;;11.38;6.18;;;;;;;10.75;nan;99866.25;4971212;28;20081;-69
2023/03/06 12:02:22;;;;;;;11.77;6.97;;;;;;;10.77;nan;99851.00;4977900;28;20034;-70
2023/03/06 12:04:54;;;;;;;15.88;6.72;;;;;;;10.81;nan;99849.47;4978461;28;20061;-70
2023/03/06 12:07:39;;;;;;;11.20;6.13;;;;;;;10.85;nan;99839.28;4958517;28;20046;-71
2023/03/06 12:10:36;;;;;;;12.25;6.75;;;;;;;10.83;nan;99828.19;4980727;28;20042;-70
2023/03/06 12:13:04;;;;;;;10.77;6.20;;;;;;;10.93;nan;99832.81;4980221;28;20035;-70
2023/03/06 12:16:07;;;;;;;13.82;7.38;;;;;;;10.91;nan;99816.44;4978665;28;20069;-70
2023/03/06 12:18:51;;;;;;;11.93;6.78;;;;;;;11.03;nan;99822.41;4976392;28;20046;-73
2023/03/06 12:21:49;;;;;;;11.70;7.03;;;;;;;11.06;nan;99814.84;4992457;28;20030;-73
2023/03/06 12:24:38;;;;;;;12.40;6.30;;;;;;;11.12;nan;99818.31;5000926;28;20080;-73
2023/03/06 12:27:03;;;;;;;10.68;6.28;;;;;;;11.14;nan;99810.97;5001228;28;20038;-71
2023/03/06 12:29:54;;;;;;;12.13;6.65;;;;;;;11.16;nan;99801.00;5001827;28;20033;-71
2023/03/06 12:32:45;;;;;;;14.07;7.05;;;;;;;11.20;nan;99802.09;5000122;28;20371;-70
2023/03/06 12:35:29;;;;;;;10.88;6.43;;;;;;;11.67;nan;99851.72;4999543;28;20088;-70
2023/03/06 12:38:32;;;;;;;10.75;6.00;;;;;;;11.39;nan;99791.25;4998661;28;20493;-71
2023/03/06 12:41:25;;;;;;;13.50;6.22;;;;;;;11.41;nan;99787.34;4998087;28;20038;-71
2023/03/06 12:44:26;;;;;;;11.95;5.75;;;;;;;11.39;nan;99772.81;4990900;28;20401;-71
2023/03/06 12:47:00;;;;;;;10.38;5.60;;;;;;;11.46;nan;99773.41;4977008;28;20036;-71
2023/03/06 12:49:29;;;;;;;12.30;6.13;;;;;;;11.49;nan;99776.38;4975959;28;20417;-71
2023/03/06 12:51:55;;;;;;;14.83;6.40;;;;;;;11.47;nan;99775.81;4975760;28;20069;-71
2023/03/06 12:54:23;;;;;;;12.57;6.13;;;;;;;;;;4967591;28;20848;-73
2023/03/06 12:56:49;;;;;;;9.07;5.70;;;;;;;;;;4976665;28;20069;-73
2023/03/06 12:59:33;;;;;;;10.77;6.47;;;;;;;;;;4961070;28;20125;-72
2023/03/06 13:01:58;;;;;;;14.23;6.85;;;;;;;;;;4976441;28;20504;-69
2023/03/06 13:04:29;;;;;;;12.88;6.78;;;;;;;;;;4971431;28;20041;-70
2023/03/06 13:06:57;;;;;;;14.90;7.35;;;;;;;;;;4975218;28;20217;-70
2023/03/06 13:09:25;;;;;;;11.45;6.60;;;;;;;;;;4966756;28;20773;-69
2023/03/06 13:11:50;;;;;;;14.07;6.93;;;;;;;;;;4977414;28;20083;-70
2023/03/06 13:14:27;;;;;;;13.30;6.73;;;;;;;;;;4973022;28;20447;-69
2023/03/06 13:16:52;;;;;;;11.65;6.75;;;;;;;;;;4976497;28;20315;-69
2023/03/06 13:19:20;;;;;;;14.65;6.93;;;;;;;;;;4978900;28;20030;-70
2023/03/06 13:21:59;;;;;;;13.77;6.57;;;;;;;;;;4996126;28;20124;-70
2023/03/06 13:24:25;;;;;;;15.77;7.95;;;;;;;;;;4983609;28;20022;-69
2023/03/06 13:26:51;;;;;;;13.13;6.85;;;;;;;;;;4983227;28;20065;-70
2023/03/06 13:29:34;;;;;;;12.27;7.03;;;;;;;;;;4992999;28;20050;-70
2023/03/06 13:31:59;;;;;;;14.57;7.95;;;;;;;;;;4996365;28;20287;-69
2023/03/06 13:34:31;;;;;;;15.43;7.57;;;;;;;;;;4994805;28;20038;-70
2023/03/06 13:37:15;;;;;;;14.60;7.65;;;;;;;;;;4997201;28;20276;-70
2023/03/06 13:39:56;;;;;;;14.13;7.13;;;;;;;;;;4999328;28;20099;-70
2023/03/06 13:42:35;;;;;;;16.73;7.35;;;;;;;;;;4997273;28;20058;-70
2023/03/06 13:45:12;;;;;;;14.20;7.35;;;;;;;;;;4996951;28;20045;-70
2023/03/06 13:47:48;;;;;;;16.88;8.52;;;;;;;;;;4983632;28;20144;-70
2023/03/06 13:50:25;;;;;;;15.35;7.93;;;;;;;;;;4980873;28;20053;-70